sensor_id;sensor_type;location;lat;lon;timestamp;pressure;altitude;pressure_sealevel;temperature;humidity
24892;BME280;12954;50.688;10.908;2022-07-24T00:01:35;96100.25;;;16.54;48.01
24892;BME280;12954;50.688;10.908;2022-07-24T00:04:07;96032.06;;;16.05;48.34
24892;BME280;12954;50.688;10.908;2022-07-24T00:06:36;96086.34;;;16.42;48.40
24892;BME280;12954;50.688;10.908;2022-07-24T00:09:05;96083.91;;;16.41;48.32
24892;BME280;12954;50.688;10.908;2022-07-24T00:11:35;96086.63;;;16.41;48.63
24892;BME280;12954;50.688;10.908;2022-07-24T00:14:04;96107.09;;;16.38;48.61
24892;BME280;12954;50.688;10.908;2022-07-24T00:16:36;96072.22;;;16.13;48.75
24892;BME280;12954;50.688;10.908;2022-07-24T00:19:07;96091.97;;;16.32;48.83
24892;BME280;12954;50.688;10.908;2022-07-24T00:21:36;96088.75;;;16.30;48.84
24892;BME280;12954;50.688;10.908;2022-07-24T00:24:05;96035.50;;;15.97;48.82
24892;BME280;12954;50.688;10.908;2022-07-24T00:26:33;96089.38;;;16.27;49.07
24892;BME280;12954;50.688;10.908;2022-07-24T00:29:03;96064.44;;;16.06;49.26
24892;BME280;12954;50.688;10.908;2022-07-24T00:31:33;96091.38;;;16.22;49.30
24892;BME280;12954;50.688;10.908;2022-07-24T00:34:02;96087.94;;;16.16;49.44
24892;BME280;12954;50.688;10.908;2022-07-24T00:36:32;96089.03;;;16.15;49.66
24892;BME280;12954;50.688;10.908;2022-07-24T00:39:02;96077.25;;;16.06;49.59
24892;BME280;12954;50.688;10.908;2022-07-24T00:41:31;96095.56;;;16.14;49.79
24892;BME280;12954;50.688;10.908;2022-07-24T00:44:04;96094.88;;;16.08;49.95
24892;BME280;12954;50.688;10.908;2022-07-24T00:46:35;96094.66;;;16.05;49.96
24892;BME280;12954;50.688;10.908;2022-07-24T00:49:06;96095.78;;;16.04;49.71
24892;BME280;12954;50.688;10.908;2022-07-24T00:51:50;96002.84;;;15.42;49.94
24892;BME280;12954;50.688;10.908;2022-07-24T00:54:19;96098.63;;;15.99;49.79
24892;BME280;12954;50.688;10.908;2022-07-24T00:56:50;96094.56;;;15.83;49.74
24892;BME280;12954;50.688;10.908;2022-07-24T00:59:20;96076.38;;;15.65;49.96
24892;BME280;12954;50.688;10.908;2022-07-24T01:01:49;96100.22;;;15.86;50.13
24892;BME280;12954;50.688;10.908;2022-07-24T01:04:19;96100.81;;;15.83;50.07
24892;BME280;12954;50.688;10.908;2022-07-24T01:06:50;96101.41;;;15.80;50.17
24892;BME280;12954;50.688;10.908;2022-07-24T01:09:18;96105.00;;;15.76;50.22
24892;BME280;12954;50.688;10.908;2022-07-24T01:11:47;96102.59;;;15.74;50.23
24892;BME280;12954;50.688;10.908;2022-07-24T01:14:16;96106.44;;;15.73;50.37
24892;BME280;12954;50.688;10.908;2022-07-24T01:16:45;96079.38;;;15.49;50.19
24892;BME280;12954;50.688;10.908;2022-07-24T01:19:14;96102.41;;;15.71;50.30
24892;BME280;12954;50.688;10.908;2022-07-24T01:21:49;96082.03;;;15.54;50.50
24892;BME280;12954;50.688;10.908;2022-07-24T01:24:19;96096.56;;;15.64;50.54
24892;BME280;12954;50.688;10.908;2022-07-24T01:26:48;96106.69;;;15.58;50.72
24892;BME280;12954;50.688;10.908;2022-07-24T01:29:16;96048.28;;;15.23;50.75
24892;BME280;12954;50.688;10.908;2022-07-24T01:31:45;96092.91;;;15.54;50.96
24892;BME280;12954;50.688;10.908;2022-07-24T01:34:14;96105.69;;;15.54;51.15
24892;BME280;12954;50.688;10.908;2022-07-24T01:36:42;96109.22;;;15.54;51.01
24892;BME280;12954;50.688;10.908;2022-07-24T01:39:12;96104.38;;;15.51;51.06
24892;BME280;12954;50.688;10.908;2022-07-24T01:41:41;96058.13;;;15.19;51.16
24892;BME280;12954;50.688;10.908;2022-07-24T01:44:10;96107.38;;;15.50;50.98
24892;BME280;12954;50.688;10.908;2022-07-24T01:46:38;96102.75;;;15.50;50.80
24892;BME280;12954;50.688;10.908;2022-07-24T01:49:07;96101.94;;;15.50;50.82
24892;BME280;12954;50.688;10.908;2022-07-24T01:51:36;96101.13;;;15.49;50.93
24892;BME280;12954;50.688;10.908;2022-07-24T01:54:05;96097.91;;;15.47;50.91
24892;BME280;12954;50.688;10.908;2022-07-24T01:56:35;96090.66;;;15.43;51.07
24892;BME280;12954;50.688;10.908;2022-07-24T01:59:05;96096.44;;;15.36;51.21
24892;BME280;12954;50.688;10.908;2022-07-24T02:01:36;96086.03;;;15.25;51.30
24892;BME280;12954;50.688;10.908;2022-07-24T02:04:05;96093.00;;;15.31;51.44
24892;BME280;12954;50.688;10.908;2022-07-24T02:06:33;96096.00;;;15.29;51.40
24892;BME280;12954;50.688;10.908;2022-07-24T02:09:02;96000.34;;;14.63;51.69
24892;BME280;12954;50.688;10.908;2022-07-24T02:11:32;96085.13;;;15.29;51.48
24892;BME280;12954;50.688;10.908;2022-07-24T02:14:02;96091.47;;;15.25;51.62
24892;BME280;12954;50.688;10.908;2022-07-24T02:16:31;96086.91;;;15.20;51.57
24892;BME280;12954;50.688;10.908;2022-07-24T02:19:00;96092.44;;;15.15;51.67
24892;BME280;12954;50.688;10.908;2022-07-24T02:21:29;96091.41;;;15.11;51.89
24892;BME280;12954;50.688;10.908;2022-07-24T02:23:57;96083.84;;;15.08;51.87
24892;BME280;12954;50.688;10.908;2022-07-24T02:26:27;96079.53;;;15.07;51.93
24892;BME280;12954;50.688;10.908;2022-07-24T02:28:55;96086.66;;;15.03;51.87
24892;BME280;12954;50.688;10.908;2022-07-24T02:31:26;96086.75;;;14.98;51.89
24892;BME280;12954;50.688;10.908;2022-07-24T02:33:55;96093.63;;;14.90;52.12
24892;BME280;12954;50.688;10.908;2022-07-24T02:36:24;96095.03;;;14.88;52.24
24892;BME280;12954;50.688;10.908;2022-07-24T02:38:52;96085.13;;;14.78;52.25
24892;BME280;12954;50.688;10.908;2022-07-24T02:41:21;96089.41;;;14.84;52.37
24892;BME280;12954;50.688;10.908;2022-07-24T02:43:49;95918.25;;;13.77;52.28
24892;BME280;12954;50.688;10.908;2022-07-24T02:46:18;96090.78;;;14.82;52.41
24892;BME280;12954;50.688;10.908;2022-07-24T02:48:50;96087.53;;;14.80;52.54
24892;BME280;12954;50.688;10.908;2022-07-24T02:51:18;96092.97;;;14.80;52.58
24892;BME280;12954;50.688;10.908;2022-07-24T02:53:47;96092.47;;;14.78;52.76
24892;BME280;12954;50.688;10.908;2022-07-24T02:56:16;96095.41;;;14.81;52.71
24892;BME280;12954;50.688;10.908;2022-07-24T02:58:46;96085.66;;;14.80;52.70
24892;BME280;12954;50.688;10.908;2022-07-24T03:01:15;96082.94;;;14.80;52.62
24892;BME280;12954;50.688;10.908;2022-07-24T03:03:44;96088.63;;;14.79;52.58
24892;BME280;12954;50.688;10.908;2022-07-24T03:06:14;96077.56;;;14.57;52.61
24892;BME280;12954;50.688;10.908;2022-07-24T03:08:43;96089.31;;;14.71;52.71
24892;BME280;12954;50.688;10.908;2022-07-24T03:11:12;96094.50;;;14.67;52.81
24892;BME280;12954;50.688;10.908;2022-07-24T03:13:43;96093.50;;;14.63;52.85
24892;BME280;12954;50.688;10.908;2022-07-24T03:16:11;96097.91;;;14.59;52.98
24892;BME280;12954;50.688;10.908;2022-07-24T03:18:40;96016.31;;;14.08;53.09
24892;BME280;12954;50.688;10.908;2022-07-24T03:21:14;96094.66;;;14.57;53.06
24892;BME280;12954;50.688;10.908;2022-07-24T03:24:04;96096.06;;;14.55;53.11
24892;BME280;12954;50.688;10.908;2022-07-24T03:26:32;96091.13;;;14.57;53.14
24892;BME280;12954;50.688;10.908;2022-07-24T03:29:01;96100.38;;;14.56;53.14
24892;BME280;12954;50.688;10.908;2022-07-24T03:31:30;96073.44;;;14.40;53.26
24892;BME280;12954;50.688;10.908;2022-07-24T03:33:59;96098.81;;;14.50;53.21
24892;BME280;12954;50.688;10.908;2022-07-24T03:36:30;96036.97;;;14.04;53.28
24892;BME280;12954;50.688;10.908;2022-07-24T03:38:58;96096.16;;;14.44;53.36
24892;BME280;12954;50.688;10.908;2022-07-24T03:41:27;96097.03;;;14.40;53.59
24892;BME280;12954;50.688;10.908;2022-07-24T03:43:56;96048.66;;;14.05;53.56
24892;BME280;12954;50.688;10.908;2022-07-24T03:46:25;96080.66;;;14.26;53.49
24892;BME280;12954;50.688;10.908;2022-07-24T03:48:55;96095.78;;;14.32;53.57
24892;BME280;12954;50.688;10.908;2022-07-24T03:51:25;96064.69;;;14.01;53.56
24892;BME280;12954;50.688;10.908;2022-07-24T03:53:55;96105.06;;;14.26;53.66
24892;BME280;12954;50.688;10.908;2022-07-24T03:56:24;96097.50;;;14.23;53.73
24892;BME280;12954;50.688;10.908;2022-07-24T03:58:52;96105.66;;;14.23;53.74
24892;BME280;12954;50.688;10.908;2022-07-24T04:01:22;96107.84;;;14.21;53.76
24892;BME280;12954;50.688;10.908;2022-07-24T04:03:51;96106.53;;;14.19;53.87
24892;BME280;12954;50.688;10.908;2022-07-24T04:06:20;96108.19;;;14.15;53.91
24892;BME280;12954;50.688;10.908;2022-07-24T04:08:49;96112.03;;;14.14;53.89
24892;BME280;12954;50.688;10.908;2022-07-24T04:11:19;96107.19;;;14.11;53.94
24892;BME280;12954;50.688;10.908;2022-07-24T04:13:48;96097.09;;;14.11;54.09
24892;BME280;12954;50.688;10.908;2022-07-24T04:16:17;96104.66;;;14.14;53.98
24892;BME280;12954;50.688;10.908;2022-07-24T04:18:46;96101.97;;;14.14;54.18
24892;BME280;12954;50.688;10.908;2022-07-24T04:21:15;96113.13;;;14.13;54.36
24892;BME280;12954;50.688;10.908;2022-07-24T04:23:43;96110.41;;;14.13;54.38
24892;BME280;12954;50.688;10.908;2022-07-24T04:26:12;96109.06;;;14.10;54.34
24892;BME280;12954;50.688;10.908;2022-07-24T04:28:43;96110.16;;;14.09;54.36
24892;BME280;12954;50.688;10.908;2022-07-24T04:31:12;96109.06;;;14.10;54.43
24892;BME280;12954;50.688;10.908;2022-07-24T04:33:40;96104.16;;;14.12;54.59
24892;BME280;12954;50.688;10.908;2022-07-24T04:36:09;96091.47;;;14.08;54.61
24892;BME280;12954;50.688;10.908;2022-07-24T04:38:38;96070.13;;;14.01;54.64
24892;BME280;12954;50.688;10.908;2022-07-24T04:41:07;96084.66;;;14.10;54.48
24892;BME280;12954;50.688;10.908;2022-07-24T04:43:36;96024.66;;;13.69;54.48
24892;BME280;12954;50.688;10.908;2022-07-24T04:46:06;96094.22;;;14.26;54.51
24892;BME280;12954;50.688;10.908;2022-07-24T04:48:35;96098.56;;;14.27;54.49
24892;BME280;12954;50.688;10.908;2022-07-24T04:51:04;96095.25;;;14.30;54.54
24892;BME280;12954;50.688;10.908;2022-07-24T04:53:32;96054.31;;;14.08;54.29
24892;BME280;12954;50.688;10.908;2022-07-24T04:56:01;96100.56;;;14.40;54.40
24892;BME280;12954;50.688;10.908;2022-07-24T04:58:30;96090.72;;;14.44;54.29
24892;BME280;12954;50.688;10.908;2022-07-24T05:00:58;96098.38;;;14.42;54.56
24892;BME280;12954;50.688;10.908;2022-07-24T05:03:29;96101.88;;;14.43;54.75
24892;BME280;12954;50.688;10.908;2022-07-24T05:05:57;96100.50;;;14.45;54.79
24892;BME280;12954;50.688;10.908;2022-07-24T05:08:26;96106.69;;;14.51;54.81
24892;BME280;12954;50.688;10.908;2022-07-24T05:10:54;96097.06;;;14.59;54.85
24892;BME280;12954;50.688;10.908;2022-07-24T05:13:23;96093.19;;;14.65;55.00
24892;BME280;12954;50.688;10.908;2022-07-24T05:15:52;96095.28;;;14.73;55.02
24892;BME280;12954;50.688;10.908;2022-07-24T05:18:22;96098.91;;;14.82;55.08
24892;BME280;12954;50.688;10.908;2022-07-24T05:20:52;96098.28;;;14.90;54.96
24892;BME280;12954;50.688;10.908;2022-07-24T05:23:21;96093.78;;;14.99;55.01
24892;BME280;12954;50.688;10.908;2022-07-24T05:25:50;96088.78;;;15.06;54.97
24892;BME280;12954;50.688;10.908;2022-07-24T05:28:18;96088.09;;;15.14;54.89
24892;BME280;12954;50.688;10.908;2022-07-24T05:30:47;96052.94;;;15.04;54.85
24892;BME280;12954;50.688;10.908;2022-07-24T05:33:15;96085.13;;;15.29;54.82
24892;BME280;12954;50.688;10.908;2022-07-24T05:35:45;96078.81;;;15.34;54.82
24892;BME280;12954;50.688;10.908;2022-07-24T05:38:16;96077.66;;;15.40;54.80
24892;BME280;12954;50.688;10.908;2022-07-24T05:40:44;96074.84;;;15.45;54.71
24892;BME280;12954;50.688;10.908;2022-07-24T05:43:14;96078.00;;;15.52;54.52
24892;BME280;12954;50.688;10.908;2022-07-24T05:45:43;96075.41;;;15.61;54.46
24892;BME280;12954;50.688;10.908;2022-07-24T05:48:12;96083.66;;;15.69;54.15
24892;BME280;12954;50.688;10.908;2022-07-24T05:50:40;96074.81;;;15.77;54.10
24892;BME280;12954;50.688;10.908;2022-07-24T05:53:09;96063.94;;;15.77;54.08
24892;BME280;12954;50.688;10.908;2022-07-24T05:55:39;96074.22;;;15.94;53.98
24892;BME280;12954;50.688;10.908;2022-07-24T05:58:08;95982.69;;;15.43;53.83
24892;BME280;12954;50.688;10.908;2022-07-24T06:00:36;96073.91;;;16.09;54.03
24892;BME280;12954;50.688;10.908;2022-07-24T06:03:05;96075.44;;;16.15;53.92
24892;BME280;12954;50.688;10.908;2022-07-24T06:05:34;96078.03;;;16.20;53.84
24892;BME280;12954;50.688;10.908;2022-07-24T06:08:03;96076.03;;;16.26;53.97
24892;BME280;12954;50.688;10.908;2022-07-24T06:10:33;96078.69;;;16.31;54.20
24892;BME280;12954;50.688;10.908;2022-07-24T06:13:03;96076.94;;;16.35;53.90
24892;BME280;12954;50.688;10.908;2022-07-24T06:15:32;96026.00;;;16.08;53.69
24892;BME280;12954;50.688;10.908;2022-07-24T06:18:06;96076.44;;;16.46;53.36
24892;BME280;12954;50.688;10.908;2022-07-24T06:20:35;96074.09;;;16.53;53.42
24892;BME280;12954;50.688;10.908;2022-07-24T06:23:03;96064.75;;;16.46;53.15
24892;BME280;12954;50.688;10.908;2022-07-24T06:25:32;96076.31;;;16.65;52.64
24892;BME280;12954;50.688;10.908;2022-07-24T06:28:03;96050.59;;;16.57;52.82
24892;BME280;12954;50.688;10.908;2022-07-24T06:30:32;96074.66;;;16.78;52.71
24892;BME280;12954;50.688;10.908;2022-07-24T06:33:01;96078.88;;;16.84;52.39
24892;BME280;12954;50.688;10.908;2022-07-24T06:35:30;96083.59;;;16.92;52.39
24892;BME280;12954;50.688;10.908;2022-07-24T06:38:00;96088.00;;;17.01;52.21
24892;BME280;12954;50.688;10.908;2022-07-24T06:40:28;96087.88;;;17.06;51.97
24892;BME280;12954;50.688;10.908;2022-07-24T06:42:57;96087.16;;;17.14;51.94
24892;BME280;12954;50.688;10.908;2022-07-24T06:45:27;96088.38;;;17.22;51.93
24892;BME280;12954;50.688;10.908;2022-07-24T06:47:59;96080.06;;;17.27;51.97
24892;BME280;12954;50.688;10.908;2022-07-24T06:50:28;96083.47;;;17.33;51.97
24892;BME280;12954;50.688;10.908;2022-07-24T06:52:57;96075.16;;;17.38;51.74
24892;BME280;12954;50.688;10.908;2022-07-24T06:55:26;96064.25;;;17.38;51.79
24892;BME280;12954;50.688;10.908;2022-07-24T06:57:55;96079.75;;;17.51;51.72
24892;BME280;12954;50.688;10.908;2022-07-24T07:00:23;96083.63;;;17.58;51.54
24892;BME280;12954;50.688;10.908;2022-07-24T07:02:54;96078.06;;;17.63;51.04
24892;BME280;12954;50.688;10.908;2022-07-24T07:05:23;96034.41;;;17.41;51.01
24892;BME280;12954;50.688;10.908;2022-07-24T07:07:52;96080.97;;;17.75;50.91
24892;BME280;12954;50.688;10.908;2022-07-24T07:10:21;96076.53;;;17.79;51.07
24892;BME280;12954;50.688;10.908;2022-07-24T07:12:50;96080.72;;;17.86;50.99
24892;BME280;12954;50.688;10.908;2022-07-24T07:15:18;96081.13;;;17.93;50.66
24892;BME280;12954;50.688;10.908;2022-07-24T07:17:47;96084.84;;;18.05;50.00
24892;BME280;12954;50.688;10.908;2022-07-24T07:20:17;96076.69;;;18.14;49.96
24892;BME280;12954;50.688;10.908;2022-07-24T07:22:46;96079.78;;;18.21;49.73
24892;BME280;12954;50.688;10.908;2022-07-24T07:25:14;96081.25;;;18.27;49.76
24892;BME280;12954;50.688;10.908;2022-07-24T07:27:43;96077.72;;;18.35;49.70
24892;BME280;12954;50.688;10.908;2022-07-24T07:30:12;96075.34;;;18.42;49.43
24892;BME280;12954;50.688;10.908;2022-07-24T07:32:41;96070.22;;;18.49;49.59
24892;BME280;12954;50.688;10.908;2022-07-24T07:35:10;96051.72;;;18.46;49.38
24892;BME280;12954;50.688;10.908;2022-07-24T07:37:49;96074.63;;;18.67;49.22
24892;BME280;12954;50.688;10.908;2022-07-24T07:40:17;96068.34;;;18.75;49.03
24892;BME280;12954;50.688;10.908;2022-07-24T07:42:46;96065.97;;;18.82;48.90
24892;BME280;12954;50.688;10.908;2022-07-24T07:45:15;96017.53;;;18.57;48.46
24892;BME280;12954;50.688;10.908;2022-07-24T07:47:44;96065.00;;;18.96;48.50
24892;BME280;12954;50.688;10.908;2022-07-24T07:50:13;96067.09;;;19.07;48.10
24892;BME280;12954;50.688;10.908;2022-07-24T07:52:41;96068.22;;;19.15;47.88
24892;BME280;12954;50.688;10.908;2022-07-24T07:55:12;96097.84;;;19.21;47.62
24892;BME280;12954;50.688;10.908;2022-07-24T07:57:40;96065.31;;;19.28;47.60
24892;BME280;12954;50.688;10.908;2022-07-24T08:00:30;96059.34;;;19.35;47.07
24892;BME280;12954;50.688;10.908;2022-07-24T08:02:59;96060.34;;;19.39;47.02
24892;BME280;12954;50.688;10.908;2022-07-24T08:05:28;96041.31;;;19.34;47.08
24892;BME280;12954;50.688;10.908;2022-07-24T08:07:57;96062.09;;;19.52;46.77
24892;BME280;12954;50.688;10.908;2022-07-24T08:10:27;96047.47;;;19.48;46.35
24892;BME280;12954;50.688;10.908;2022-07-24T08:12:56;96063.66;;;19.70;45.69
24892;BME280;12954;50.688;10.908;2022-07-24T08:15:25;96062.66;;;19.75;45.74
24892;BME280;12954;50.688;10.908;2022-07-24T08:17:54;96058.97;;;19.79;45.42
24892;BME280;12954;50.688;10.908;2022-07-24T08:20:24;96057.19;;;19.83;45.28
24892;BME280;12954;50.688;10.908;2022-07-24T08:22:52;96054.88;;;19.94;44.71
24892;BME280;12954;50.688;10.908;2022-07-24T08:25:23;96058.59;;;19.98;44.38
24892;BME280;12954;50.688;10.908;2022-07-24T08:27:53;95966.94;;;19.49;44.05
24892;BME280;12954;50.688;10.908;2022-07-24T08:30:21;96051.91;;;20.08;43.82
24892;BME280;12954;50.688;10.908;2022-07-24T08:32:52;96049.97;;;20.17;43.49
24892;BME280;12954;50.688;10.908;2022-07-24T08:35:21;96050.72;;;20.26;43.03
24892;BME280;12954;50.688;10.908;2022-07-24T08:37:58;96059.53;;;20.40;41.56
24892;BME280;12954;50.688;10.908;2022-07-24T08:40:35;96053.22;;;20.48;41.14
24892;BME280;12954;50.688;10.908;2022-07-24T08:43:06;96054.13;;;20.52;40.86
24892;BME280;12954;50.688;10.908;2022-07-24T08:45:37;96053.94;;;20.57;40.63
24892;BME280;12954;50.688;10.908;2022-07-24T08:48:08;96050.06;;;20.58;40.63
24892;BME280;12954;50.688;10.908;2022-07-24T08:50:39;96053.91;;;20.66;40.53
24892;BME280;12954;50.688;10.908;2022-07-24T08:53:08;96051.88;;;20.75;40.69
24892;BME280;12954;50.688;10.908;2022-07-24T08:55:38;96049.44;;;20.82;40.49
24892;BME280;12954;50.688;10.908;2022-07-24T08:58:08;96056.34;;;20.88;40.48
24892;BME280;12954;50.688;10.908;2022-07-24T09:00:36;96046.72;;;21.02;39.74
24892;BME280;12954;50.688;10.908;2022-07-24T09:03:05;96052.34;;;21.06;39.83
24892;BME280;12954;50.688;10.908;2022-07-24T09:05:52;96044.69;;;21.12;39.58
24892;BME280;12954;50.688;10.908;2022-07-24T09:08:21;96062.56;;;21.18;39.79
24892;BME280;12954;50.688;10.908;2022-07-24T09:10:55;96055.97;;;21.31;39.34
24892;BME280;12954;50.688;10.908;2022-07-24T09:13:28;96053.50;;;21.38;39.33
24892;BME280;12954;50.688;10.908;2022-07-24T09:16:20;96048.72;;;21.47;38.69
24892;BME280;12954;50.688;10.908;2022-07-24T09:19:03;96053.22;;;21.51;38.91
24892;BME280;12954;50.688;10.908;2022-07-24T09:21:35;96053.13;;;21.60;38.50
24892;BME280;12954;50.688;10.908;2022-07-24T09:24:12;96049.25;;;21.61;38.56
24892;BME280;12954;50.688;10.908;2022-07-24T09:26:45;96048.16;;;21.74;38.41
24892;BME280;12954;50.688;10.908;2022-07-24T09:29:19;96020.66;;;21.62;38.49
24892;BME280;12954;50.688;10.908;2022-07-24T09:31:54;96029.72;;;21.63;38.31
24892;BME280;12954;50.688;10.908;2022-07-24T09:34:24;96059.63;;;21.88;38.42
24892;BME280;12954;50.688;10.908;2022-07-24T09:36:57;96058.28;;;21.94;38.19
24892;BME280;12954;50.688;10.908;2022-07-24T09:39:29;96061.59;;;22.00;37.93
24892;BME280;12954;50.688;10.908;2022-07-24T09:42:00;96012.69;;;21.81;37.70
24892;BME280;12954;50.688;10.908;2022-07-24T09:44:31;96053.63;;;22.19;37.75
24892;BME280;12954;50.688;10.908;2022-07-24T09:47:01;96055.94;;;22.29;37.55
24892;BME280;12954;50.688;10.908;2022-07-24T09:49:31;96055.44;;;22.39;37.25
24892;BME280;12954;50.688;10.908;2022-07-24T09:52:08;96049.50;;;22.49;36.30
24892;BME280;12954;50.688;10.908;2022-07-24T09:54:39;96055.44;;;22.51;36.89
24892;BME280;12954;50.688;10.908;2022-07-24T09:57:15;96047.06;;;22.60;36.72
24892;BME280;12954;50.688;10.908;2022-07-24T09:59:48;96049.63;;;22.65;36.43
24892;BME280;12954;50.688;10.908;2022-07-24T10:02:24;96056.69;;;22.66;36.73
24892;BME280;12954;50.688;10.908;2022-07-24T10:04:53;96056.94;;;22.73;36.63
24892;BME280;12954;50.688;10.908;2022-07-24T10:07:23;96060.81;;;22.72;36.37
24892;BME280;12954;50.688;10.908;2022-07-24T10:09:54;96060.81;;;22.72;36.67
24892;BME280;12954;50.688;10.908;2022-07-24T10:12:25;96056.47;;;22.83;36.61
24892;BME280;12954;50.688;10.908;2022-07-24T10:14:58;96052.56;;;22.96;36.22
24892;BME280;12954;50.688;10.908;2022-07-24T10:17:35;96038.31;;;23.06;36.04
24892;BME280;12954;50.688;10.908;2022-07-24T10:20:10;96045.19;;;23.12;36.36
24892;BME280;12954;50.688;10.908;2022-07-24T10:23:03;96038.03;;;23.23;36.31
24892;BME280;12954;50.688;10.908;2022-07-24T10:25:42;96042.13;;;23.30;35.79
24892;BME280;12954;50.688;10.908;2022-07-24T10:31:11;96039.94;;;23.35;36.13
24892;BME280;12954;50.688;10.908;2022-07-24T10:33:42;96032.47;;;23.36;35.99
24892;BME280;12954;50.688;10.908;2022-07-24T10:36:19;96033.72;;;23.38;35.70
24892;BME280;12954;50.688;10.908;2022-07-24T10:38:55;96035.28;;;23.51;35.64
24892;BME280;12954;50.688;10.908;2022-07-24T10:41:26;96027.66;;;23.60;35.97
24892;BME280;12954;50.688;10.908;2022-07-24T10:44:13;96019.00;;;23.74;35.71
24892;BME280;12954;50.688;10.908;2022-07-24T10:47:04;96025.38;;;23.78;35.20
24892;BME280;12954;50.688;10.908;2022-07-24T10:49:41;96033.22;;;23.76;35.58
24892;BME280;12954;50.688;10.908;2022-07-24T10:52:21;96030.16;;;23.65;35.49
24892;BME280;12954;50.688;10.908;2022-07-24T10:55:22;96027.16;;;23.70;35.12
24892;BME280;12954;50.688;10.908;2022-07-24T10:58:04;96014.00;;;23.64;35.11
24892;BME280;12954;50.688;10.908;2022-07-24T11:00:43;96018.09;;;23.70;35.16
24892;BME280;12954;50.688;10.908;2022-07-24T11:03:20;96018.44;;;23.84;34.99
24892;BME280;12954;50.688;10.908;2022-07-24T11:06:03;96014.09;;;23.99;34.63
24892;BME280;12954;50.688;10.908;2022-07-24T11:08:32;96013.63;;;24.09;34.53
24892;BME280;12954;50.688;10.908;2022-07-24T11:11:12;96018.25;;;24.20;34.26
24892;BME280;12954;50.688;10.908;2022-07-24T11:13:50;96003.72;;;24.23;33.98
24892;BME280;12954;50.688;10.908;2022-07-24T11:16:20;95957.66;;;24.08;33.90
24892;BME280;12954;50.688;10.908;2022-07-24T11:19:25;95997.56;;;24.46;33.58
24892;BME280;12954;50.688;10.908;2022-07-24T11:22:06;95999.59;;;24.49;33.38
24892;BME280;12954;50.688;10.908;2022-07-24T11:24:39;96009.72;;;24.45;33.47
24892;BME280;12954;50.688;10.908;2022-07-24T11:27:14;95997.94;;;24.44;33.16
24892;BME280;12954;50.688;10.908;2022-07-24T11:29:45;95996.41;;;24.47;33.45
24892;BME280;12954;50.688;10.908;2022-07-24T11:32:15;95974.34;;;24.47;32.73
24892;BME280;12954;50.688;10.908;2022-07-24T11:34:49;95951.50;;;24.30;32.66
24892;BME280;12954;50.688;10.908;2022-07-24T11:37:19;95997.94;;;24.79;32.70
24892;BME280;12954;50.688;10.908;2022-07-24T11:39:51;95986.47;;;24.96;32.57
24892;BME280;12954;50.688;10.908;2022-07-24T11:42:20;95989.09;;;25.08;32.23
24892;BME280;12954;50.688;10.908;2022-07-24T11:44:49;95976.84;;;25.25;32.12
24892;BME280;12954;50.688;10.908;2022-07-24T11:47:19;95977.78;;;25.32;32.00
24892;BME280;12954;50.688;10.908;2022-07-24T11:49:51;95976.88;;;25.48;32.09
24892;BME280;12954;50.688;10.908;2022-07-24T11:52:22;95965.28;;;25.38;31.67
24892;BME280;12954;50.688;10.908;2022-07-24T11:54:53;95966.03;;;25.58;32.11
24892;BME280;12954;50.688;10.908;2022-07-24T11:57:25;95964.41;;;25.76;31.93
24892;BME280;12954;50.688;10.908;2022-07-24T12:00:17;95938.34;;;25.77;31.35
24892;BME280;12954;50.688;10.908;2022-07-24T12:02:48;95951.16;;;25.85;30.75
24892;BME280;12954;50.688;10.908;2022-07-24T12:05:25;95955.69;;;25.97;30.77
24892;BME280;12954;50.688;10.908;2022-07-24T12:07:54;95967.97;;;25.99;30.78
24892;BME280;12954;50.688;10.908;2022-07-24T12:10:24;95957.94;;;26.14;30.55
24892;BME280;12954;50.688;10.908;2022-07-24T12:12:54;95938.03;;;26.05;30.54
24892;BME280;12954;50.688;10.908;2022-07-24T12:15:25;95963.53;;;26.40;30.48
24892;BME280;12954;50.688;10.908;2022-07-24T12:17:57;95939.44;;;26.44;30.11
24892;BME280;12954;50.688;10.908;2022-07-24T12:20:29;95949.03;;;26.50;30.11
24892;BME280;12954;50.688;10.908;2022-07-24T12:23:00;95945.69;;;26.38;30.21
24892;BME280;12954;50.688;10.908;2022-07-24T12:25:29;95936.09;;;26.32;30.55
24892;BME280;12954;50.688;10.908;2022-07-24T12:28:03;95944.06;;;26.37;30.17
24892;BME280;12954;50.688;10.908;2022-07-24T12:30:34;95917.94;;;26.34;29.79
24892;BME280;12954;50.688;10.908;2022-07-24T12:33:04;95931.53;;;26.43;29.77
24892;BME280;12954;50.688;10.908;2022-07-24T12:38:24;95927.75;;;26.54;29.35
24892;BME280;12954;50.688;10.908;2022-07-24T12:41:01;95921.34;;;26.50;29.58
24892;BME280;12954;50.688;10.908;2022-07-24T12:43:30;95895.06;;;26.37;29.46
24892;BME280;12954;50.688;10.908;2022-07-24T12:46:06;95914.50;;;26.71;29.35
24892;BME280;12954;50.688;10.908;2022-07-24T12:48:35;95916.63;;;26.81;29.28
24892;BME280;12954;50.688;10.908;2022-07-24T12:51:07;95910.84;;;26.93;29.07
24892;BME280;12954;50.688;10.908;2022-07-24T12:53:39;95909.44;;;27.06;28.89
24892;BME280;12954;50.688;10.908;2022-07-24T12:56:13;95905.66;;;27.21;28.79
24892;BME280;12954;50.688;10.908;2022-07-24T12:59:06;95900.66;;;27.34;28.38
24892;BME280;12954;50.688;10.908;2022-07-24T13:01:46;95904.84;;;27.21;28.47
24892;BME280;12954;50.688;10.908;2022-07-24T13:04:16;95907.09;;;27.08;28.64
24892;BME280;12954;50.688;10.908;2022-07-24T13:06:48;95904.75;;;27.10;28.59
24892;BME280;12954;50.688;10.908;2022-07-24T13:09:17;95900.84;;;27.15;28.59
24892;BME280;12954;50.688;10.908;2022-07-24T13:11:48;95881.97;;;27.27;28.29
24892;BME280;12954;50.688;10.908;2022-07-24T13:14:19;95894.91;;;27.53;27.52
24892;BME280;12954;50.688;10.908;2022-07-24T13:16:50;95834.69;;;27.09;27.66